sensor_id;sensor_type;location;lat;lon;timestamp;P1;durP1;ratioP1;P2;durP2;ratioP2
72674;SDS011;60752;53.962;9.614;2023-02-01T00:03:36;9.77;;;2.43;;
72674;SDS011;60752;53.962;9.614;2023-02-01T00:08:36;14.20;;;2.17;;
72674;SDS011;60752;53.962;9.614;2023-02-01T00:13:38;13.07;;;2.13;;
72674;SDS011;60752;53.962;9.614;2023-02-01T00:18:41;11.57;;;1.87;;
72674;SDS011;60752;53.962;9.614;2023-02-01T00:23:41;16.40;;;2.67;;
72674;SDS011;60752;53.962;9.614;2023-02-01T00:28:41;19.60;;;2.47;;
72674;SDS011;60752;53.962;9.614;2023-02-01T00:33:46;24.93;;;3.10;;
72674;SDS011;60752;53.962;9.614;2023-02-01T00:38:46;18.77;;;2.95;;
72674;SDS011;60752;53.962;9.614;2023-02-01T00:43:47;15.53;;;2.37;;
72674;SDS011;60752;53.962;9.614;2023-02-01T00:48:49;18.83;;;3.20;;
72674;SDS011;60752;53.962;9.614;2023-02-01T00:53:50;13.13;;;2.10;;
72674;SDS011;60752;53.962;9.614;2023-02-01T00:58:50;9.27;;;1.97;;
72674;SDS011;60752;53.962;9.614;2023-02-01T01:03:53;24.83;;;3.30;;
72674;SDS011;60752;53.962;9.614;2023-02-01T01:08:55;15.05;;;2.38;;
72674;SDS011;60752;53.962;9.614;2023-02-01T01:13:57;16.80;;;2.72;;
72674;SDS011;60752;53.962;9.614;2023-02-01T01:18:59;23.47;;;3.53;;
72674;SDS011;60752;53.962;9.614;2023-02-01T01:24:00;14.52;;;2.95;;
72674;SDS011;60752;53.962;9.614;2023-02-01T01:29:01;25.03;;;2.33;;
72674;SDS011;60752;53.962;9.614;2023-02-01T01:34:03;10.53;;;2.57;;
72674;SDS011;60752;53.962;9.614;2023-02-01T01:39:03;22.17;;;2.78;;
72674;SDS011;60752;53.962;9.614;2023-02-01T01:44:04;23.10;;;3.03;;
72674;SDS011;60752;53.962;9.614;2023-02-01T01:49:07;22.50;;;3.58;;
72674;SDS011;60752;53.962;9.614;2023-02-01T01:54:12;18.20;;;2.87;;
72674;SDS011;60752;53.962;9.614;2023-02-01T01:59:16;20.77;;;3.10;;
72674;SDS011;60752;53.962;9.614;2023-02-01T02:04:19;25.95;;;3.20;;
72674;SDS011;60752;53.962;9.614;2023-02-01T02:09:19;26.50;;;3.17;;
72674;SDS011;60752;53.962;9.614;2023-02-01T02:14:20;31.00;;;3.53;;
72674;SDS011;60752;53.962;9.614;2023-02-01T02:19:43;15.88;;;3.22;;
72674;SDS011;60752;53.962;9.614;2023-02-01T02:30:23;21.93;;;4.17;;
72674;SDS011;60752;53.962;9.614;2023-02-01T02:35:43;22.23;;;2.90;;
72674;SDS011;60752;53.962;9.614;2023-02-01T02:40:51;17.92;;;2.60;;
72674;SDS011;60752;53.962;9.614;2023-02-01T02:46:01;14.48;;;2.88;;
72674;SDS011;60752;53.962;9.614;2023-02-01T02:51:05;16.47;;;2.77;;
72674;SDS011;60752;53.962;9.614;2023-02-01T02:56:10;19.63;;;3.25;;
72674;SDS011;60752;53.962;9.614;2023-02-01T03:01:12;20.40;;;2.80;;
72674;SDS011;60752;53.962;9.614;2023-02-01T03:06:14;25.67;;;3.77;;
72674;SDS011;60752;53.962;9.614;2023-02-01T03:11:17;18.60;;;3.03;;
72674;SDS011;60752;53.962;9.614;2023-02-01T03:16:19;13.07;;;2.13;;
72674;SDS011;60752;53.962;9.614;2023-02-01T03:21:24;13.80;;;1.90;;
72674;SDS011;60752;53.962;9.614;2023-02-01T03:26:28;6.80;;;1.33;;
72674;SDS011;60752;53.962;9.614;2023-02-01T03:31:31;3.08;;;0.73;;
72674;SDS011;60752;53.962;9.614;2023-02-01T03:36:35;3.60;;;1.13;;
72674;SDS011;60752;53.962;9.614;2023-02-01T03:41:40;7.88;;;1.20;;
72674;SDS011;60752;53.962;9.614;2023-02-01T03:46:43;6.17;;;1.13;;
72674;SDS011;60752;53.962;9.614;2023-02-01T03:51:48;6.00;;;1.30;;
72674;SDS011;60752;53.962;9.614;2023-02-01T03:56:51;12.43;;;1.63;;
72674;SDS011;60752;53.962;9.614;2023-02-01T04:01:55;12.82;;;3.05;;
72674;SDS011;60752;53.962;9.614;2023-02-01T04:06:56;8.10;;;1.93;;
72674;SDS011;60752;53.962;9.614;2023-02-01T04:11:57;5.60;;;1.80;;
72674;SDS011;60752;53.962;9.614;2023-02-01T04:16:57;9.17;;;1.83;;
72674;SDS011;60752;53.962;9.614;2023-02-01T04:21:59;9.00;;;1.67;;
72674;SDS011;60752;53.962;9.614;2023-02-01T04:26:59;9.85;;;1.90;;
72674;SDS011;60752;53.962;9.614;2023-02-01T04:32:00;9.97;;;1.60;;
72674;SDS011;60752;53.962;9.614;2023-02-01T04:37:01;11.87;;;1.83;;
72674;SDS011;60752;53.962;9.614;2023-02-01T04:42:02;9.75;;;1.67;;
72674;SDS011;60752;53.962;9.614;2023-02-01T04:47:03;21.07;;;1.50;;
72674;SDS011;60752;53.962;9.614;2023-02-01T04:52:04;13.00;;;1.93;;
72674;SDS011;60752;53.962;9.614;2023-02-01T04:57:05;5.25;;;1.33;;
72674;SDS011;60752;53.962;9.614;2023-02-01T05:02:05;7.37;;;1.33;;
72674;SDS011;60752;53.962;9.614;2023-02-01T05:07:07;4.87;;;1.00;;
72674;SDS011;60752;53.962;9.614;2023-02-01T05:12:08;4.90;;;1.02;;
72674;SDS011;60752;53.962;9.614;2023-02-01T05:17:09;5.70;;;0.90;;
72674;SDS011;60752;53.962;9.614;2023-02-01T05:22:11;3.53;;;1.00;;
72674;SDS011;60752;53.962;9.614;2023-02-01T05:27:11;2.58;;;0.70;;
72674;SDS011;60752;53.962;9.614;2023-02-01T05:32:12;2.53;;;0.70;;
72674;SDS011;60752;53.962;9.614;2023-02-01T05:37:13;3.00;;;0.83;;
72674;SDS011;60752;53.962;9.614;2023-02-01T05:42:14;1.65;;;0.70;;
72674;SDS011;60752;53.962;9.614;2023-02-01T05:47:14;3.80;;;0.70;;
72674;SDS011;60752;53.962;9.614;2023-02-01T05:52:16;4.20;;;0.70;;
72674;SDS011;60752;53.962;9.614;2023-02-01T05:57:16;5.18;;;1.17;;
72674;SDS011;60752;53.962;9.614;2023-02-01T06:02:17;2.17;;;0.77;;
72674;SDS011;60752;53.962;9.614;2023-02-01T06:07:19;7.50;;;0.90;;
72674;SDS011;60752;53.962;9.614;2023-02-01T06:12:19;5.28;;;1.20;;
72674;SDS011;60752;53.962;9.614;2023-02-01T06:17:22;14.83;;;1.80;;
72674;SDS011;60752;53.962;9.614;2023-02-01T06:22:24;14.23;;;1.23;;
72674;SDS011;60752;53.962;9.614;2023-02-01T06:27:25;13.27;;;1.85;;
72674;SDS011;60752;53.962;9.614;2023-02-01T06:32:25;14.80;;;1.43;;
72674;SDS011;60752;53.962;9.614;2023-02-01T06:37:27;12.20;;;1.93;;
72674;SDS011;60752;53.962;9.614;2023-02-01T06:42:27;7.50;;;1.70;;
72674;SDS011;60752;53.962;9.614;2023-02-01T06:47:28;11.30;;;1.27;;
72674;SDS011;60752;53.962;9.614;2023-02-01T06:52:30;11.33;;;1.50;;
72674;SDS011;60752;53.962;9.614;2023-02-01T06:57:30;13.05;;;2.63;;
72674;SDS011;60752;53.962;9.614;2023-02-01T07:02:31;22.70;;;3.30;;
72674;SDS011;60752;53.962;9.614;2023-02-01T07:07:32;17.50;;;1.93;;
72674;SDS011;60752;53.962;9.614;2023-02-01T07:12:33;19.70;;;2.30;;
72674;SDS011;60752;53.962;9.614;2023-02-01T07:17:33;11.87;;;2.17;;
72674;SDS011;60752;53.962;9.614;2023-02-01T07:22:35;21.37;;;2.63;;
72674;SDS011;60752;53.962;9.614;2023-02-01T07:27:36;10.80;;;2.03;;
72674;SDS011;60752;53.962;9.614;2023-02-01T07:32:36;15.07;;;2.33;;
72674;SDS011;60752;53.962;9.614;2023-02-01T07:37:38;12.23;;;1.77;;
72674;SDS011;60752;53.962;9.614;2023-02-01T07:42:38;19.20;;;2.13;;
72674;SDS011;60752;53.962;9.614;2023-02-01T07:47:39;14.03;;;2.40;;
72674;SDS011;60752;53.962;9.614;2023-02-01T07:52:40;15.13;;;2.73;;
72674;SDS011;60752;53.962;9.614;2023-02-01T07:57:41;18.50;;;2.45;;
72674;SDS011;60752;53.962;9.614;2023-02-01T08:02:42;13.83;;;2.63;;
72674;SDS011;60752;53.962;9.614;2023-02-01T08:07:43;15.00;;;2.13;;
72674;SDS011;60752;53.962;9.614;2023-02-01T08:12:44;27.65;;;2.92;;
72674;SDS011;60752;53.962;9.614;2023-02-01T08:17:47;9.50;;;1.70;;
72674;SDS011;60752;53.962;9.614;2023-02-01T08:22:49;15.30;;;2.80;;
72674;SDS011;60752;53.962;9.614;2023-02-01T08:27:50;17.07;;;2.50;;
72674;SDS011;60752;53.962;9.614;2023-02-01T08:32:50;18.80;;;2.47;;
72674;SDS011;60752;53.962;9.614;2023-02-01T08:37:52;11.57;;;1.97;;
72674;SDS011;60752;53.962;9.614;2023-02-01T08:42:53;14.40;;;1.90;;
72674;SDS011;60752;53.962;9.614;2023-02-01T08:47:53;10.87;;;1.83;;
72674;SDS011;60752;53.962;9.614;2023-02-01T08:52:55;8.67;;;1.53;;
72674;SDS011;60752;53.962;9.614;2023-02-01T08:57:55;12.68;;;1.77;;
72674;SDS011;60752;53.962;9.614;2023-02-01T09:02:56;13.60;;;2.33;;
72674;SDS011;60752;53.962;9.614;2023-02-01T09:07:58;11.27;;;1.50;;
72674;SDS011;60752;53.962;9.614;2023-02-01T09:12:58;16.33;;;1.90;;
72674;SDS011;60752;53.962;9.614;2023-02-01T09:17:58;11.27;;;2.37;;
72674;SDS011;60752;53.962;9.614;2023-02-01T09:23:00;18.50;;;2.37;;
72674;SDS011;60752;53.962;9.614;2023-02-01T09:28:01;7.63;;;1.37;;
72674;SDS011;60752;53.962;9.614;2023-02-01T09:33:01;14.50;;;2.03;;
72674;SDS011;60752;53.962;9.614;2023-02-01T09:38:03;13.17;;;1.87;;
72674;SDS011;60752;53.962;9.614;2023-02-01T09:43:10;19.80;;;2.25;;
72674;SDS011;60752;53.962;9.614;2023-02-01T09:48:19;26.37;;;3.37;;
72674;SDS011;60752;53.962;9.614;2023-02-01T09:53:27;19.73;;;3.10;;
72674;SDS011;60752;53.962;9.614;2023-02-01T09:58:30;16.48;;;1.90;;
72674;SDS011;60752;53.962;9.614;2023-02-01T10:03:36;17.43;;;3.27;;
72674;SDS011;60752;53.962;9.614;2023-02-01T10:08:44;17.13;;;3.40;;
72674;SDS011;60752;53.962;9.614;2023-02-01T10:14:01;20.57;;;2.50;;
72674;SDS011;60752;53.962;9.614;2023-02-01T10:19:16;19.83;;;2.83;;
72674;SDS011;60752;53.962;9.614;2023-02-01T10:24:40;25.00;;;4.15;;
72674;SDS011;60752;53.962;9.614;2023-02-01T10:29:43;12.37;;;2.67;;
72674;SDS011;60752;53.962;9.614;2023-02-01T10:34:47;18.90;;;3.07;;
72674;SDS011;60752;53.962;9.614;2023-02-01T10:39:53;16.77;;;2.80;;
72674;SDS011;60752;53.962;9.614;2023-02-01T10:44:56;17.35;;;3.13;;
72674;SDS011;60752;53.962;9.614;2023-02-01T10:50:02;26.57;;;3.07;;
72674;SDS011;60752;53.962;9.614;2023-02-01T10:55:38;15.48;;;2.85;;
72674;SDS011;60752;53.962;9.614;2023-02-01T11:00:47;18.45;;;2.00;;
72674;SDS011;60752;53.962;9.614;2023-02-01T11:05:52;15.00;;;3.03;;
72674;SDS011;60752;53.962;9.614;2023-02-01T11:11:00;11.10;;;2.63;;
72674;SDS011;60752;53.962;9.614;2023-02-01T11:16:04;12.48;;;2.55;;
72674;SDS011;60752;53.962;9.614;2023-02-01T11:21:05;26.13;;;3.77;;
72674;SDS011;60752;53.962;9.614;2023-02-01T11:26:11;17.50;;;2.50;;
72674;SDS011;60752;53.962;9.614;2023-02-01T11:31:14;26.45;;;2.72;;
72674;SDS011;60752;53.962;9.614;2023-02-01T11:36:15;11.63;;;2.47;;
72674;SDS011;60752;53.962;9.614;2023-02-01T11:41:22;21.48;;;2.33;;
72674;SDS011;60752;53.962;9.614;2023-02-01T11:46:26;20.63;;;3.35;;
72674;SDS011;60752;53.962;9.614;2023-02-01T11:51:37;20.10;;;2.77;;
72674;SDS011;60752;53.962;9.614;2023-02-01T11:56:47;13.05;;;2.63;;
72674;SDS011;60752;53.962;9.614;2023-02-01T12:02:02;16.98;;;2.22;;
72674;SDS011;60752;53.962;9.614;2023-02-01T12:07:16;12.77;;;2.33;;
72674;SDS011;60752;53.962;9.614;2023-02-01T12:12:23;21.00;;;3.00;;
72674;SDS011;60752;53.962;9.614;2023-02-01T12:22:55;9.80;;;1.63;;
72674;SDS011;60752;53.962;9.614;2023-02-01T12:28:10;4.80;;;1.27;;
72674;SDS011;60752;53.962;9.614;2023-02-01T12:33:18;10.85;;;1.58;;
72674;SDS011;60752;53.962;9.614;2023-02-01T12:38:32;4.75;;;1.70;;
72674;SDS011;60752;53.962;9.614;2023-02-01T12:43:45;6.57;;;1.10;;
72674;SDS011;60752;53.962;9.614;2023-02-01T12:48:51;2.55;;;0.60;;
72674;SDS011;60752;53.962;9.614;2023-02-01T12:53:57;8.80;;;1.98;;
72674;SDS011;60752;53.962;9.614;2023-02-01T12:59:10;5.80;;;1.07;;
72674;SDS011;60752;53.962;9.614;2023-02-01T13:04:19;8.38;;;1.33;;
72674;SDS011;60752;53.962;9.614;2023-02-01T13:09:25;4.50;;;0.80;;
72674;SDS011;60752;53.962;9.614;2023-02-01T13:14:32;3.70;;;0.93;;
72674;SDS011;60752;53.962;9.614;2023-02-01T13:19:41;6.27;;;0.87;;
72674;SDS011;60752;53.962;9.614;2023-02-01T13:24:45;4.03;;;0.75;;
72674;SDS011;60752;53.962;9.614;2023-02-01T13:29:53;9.57;;;1.52;;
72674;SDS011;60752;53.962;9.614;2023-02-01T13:40:36;11.07;;;1.75;;
72674;SDS011;60752;53.962;9.614;2023-02-01T13:45:43;6.45;;;1.55;;
72674;SDS011;60752;53.962;9.614;2023-02-01T13:50:50;10.23;;;1.80;;
72674;SDS011;60752;53.962;9.614;2023-02-01T13:55:57;9.02;;;1.92;;
72674;SDS011;60752;53.962;9.614;2023-02-01T14:06:39;11.40;;;1.33;;
72674;SDS011;60752;53.962;9.614;2023-02-01T14:11:43;10.93;;;1.37;;
72674;SDS011;60752;53.962;9.614;2023-02-01T14:22:35;11.98;;;2.15;;
72674;SDS011;60752;53.962;9.614;2023-02-01T14:27:36;12.37;;;1.50;;
72674;SDS011;60752;53.962;9.614;2023-02-01T14:32:38;8.47;;;1.87;;
72674;SDS011;60752;53.962;9.614;2023-02-01T14:37:40;6.82;;;1.55;;
72674;SDS011;60752;53.962;9.614;2023-02-01T14:42:43;7.93;;;1.80;;
72674;SDS011;60752;53.962;9.614;2023-02-01T14:47:46;4.80;;;1.60;;
72674;SDS011;60752;53.962;9.614;2023-02-01T14:52:49;21.23;;;2.37;;
72674;SDS011;60752;53.962;9.614;2023-02-01T14:58:05;10.98;;;1.88;;
72674;SDS011;60752;53.962;9.614;2023-02-01T15:03:19;13.82;;;1.95;;
72674;SDS011;60752;53.962;9.614;2023-02-01T15:08:25;7.50;;;1.90;;
72674;SDS011;60752;53.962;9.614;2023-02-01T15:13:28;17.70;;;2.53;;
72674;SDS011;60752;53.962;9.614;2023-02-01T15:18:30;15.63;;;2.15;;
72674;SDS011;60752;53.962;9.614;2023-02-01T15:23:31;13.67;;;2.10;;
72674;SDS011;60752;53.962;9.614;2023-02-01T15:28:32;15.55;;;2.80;;
72674;SDS011;60752;53.962;9.614;2023-02-01T15:33:34;13.13;;;1.87;;
72674;SDS011;60752;53.962;9.614;2023-02-01T15:38:36;16.05;;;1.90;;
72674;SDS011;60752;53.962;9.614;2023-02-01T15:43:39;13.93;;;2.33;;
72674;SDS011;60752;53.962;9.614;2023-02-01T15:48:44;12.03;;;2.53;;
72674;SDS011;60752;53.962;9.614;2023-02-01T15:53:48;7.82;;;2.40;;
72674;SDS011;60752;53.962;9.614;2023-02-01T15:58:53;15.48;;;2.45;;
72674;SDS011;60752;53.962;9.614;2023-02-01T16:04:04;14.67;;;2.20;;
72674;SDS011;60752;53.962;9.614;2023-02-01T16:09:15;17.80;;;1.95;;
72674;SDS011;60752;53.962;9.614;2023-02-01T16:14:17;12.18;;;2.53;;
72674;SDS011;60752;53.962;9.614;2023-02-01T16:19:19;16.93;;;2.70;;
72674;SDS011;60752;53.962;9.614;2023-02-01T16:24:20;16.67;;;2.77;;
72674;SDS011;60752;53.962;9.614;2023-02-01T16:29:20;21.47;;;4.20;;
72674;SDS011;60752;53.962;9.614;2023-02-01T16:34:22;13.37;;;3.00;;
72674;SDS011;60752;53.962;9.614;2023-02-01T16:39:22;18.53;;;3.50;;
72674;SDS011;60752;53.962;9.614;2023-02-01T16:44:23;13.48;;;2.25;;
72674;SDS011;60752;53.962;9.614;2023-02-01T16:49:25;16.10;;;2.47;;
72674;SDS011;60752;53.962;9.614;2023-02-01T16:54:26;20.02;;;3.20;;
72674;SDS011;60752;53.962;9.614;2023-02-01T16:59:26;10.30;;;2.70;;
72674;SDS011;60752;53.962;9.614;2023-02-01T17:04:28;15.33;;;2.83;;
72674;SDS011;60752;53.962;9.614;2023-02-01T17:09:28;17.50;;;3.23;;
72674;SDS011;60752;53.962;9.614;2023-02-01T17:14:29;10.53;;;2.43;;
72674;SDS011;60752;53.962;9.614;2023-02-01T17:19:32;22.13;;;4.00;;
72674;SDS011;60752;53.962;9.614;2023-02-01T17:24:33;20.52;;;2.55;;
72674;SDS011;60752;53.962;9.614;2023-02-01T17:29:33;18.73;;;2.97;;
72674;SDS011;60752;53.962;9.614;2023-02-01T17:34:35;17.17;;;3.10;;
72674;SDS011;60752;53.962;9.614;2023-02-01T17:39:35;14.13;;;2.45;;
72674;SDS011;60752;53.962;9.614;2023-02-01T17:44:36;11.13;;;2.47;;
72674;SDS011;60752;53.962;9.614;2023-02-01T17:49:38;19.93;;;2.87;;
72674;SDS011;60752;53.962;9.614;2023-02-01T17:54:38;15.98;;;2.08;;
72674;SDS011;60752;53.962;9.614;2023-02-01T17:59:39;17.27;;;2.90;;
72674;SDS011;60752;53.962;9.614;2023-02-01T18:04:41;18.13;;;2.63;;
72674;SDS011;60752;53.962;9.614;2023-02-01T18:09:41;22.73;;;3.80;;
72674;SDS011;60752;53.962;9.614;2023-02-01T18:14:41;27.97;;;3.37;;
72674;SDS011;60752;53.962;9.614;2023-02-01T18:19:43;20.90;;;4.13;;
72674;SDS011;60752;53.962;9.614;2023-02-01T18:24:43;16.07;;;3.50;;
72674;SDS011;60752;53.962;9.614;2023-02-01T18:29:44;19.10;;;3.53;;
72674;SDS011;60752;53.962;9.614;2023-02-01T18:34:45;14.57;;;2.10;;
72674;SDS011;60752;53.962;9.614;2023-02-01T18:39:46;29.73;;;3.83;;
72674;SDS011;60752;53.962;9.614;2023-02-01T18:44:46;18.87;;;3.17;;
72674;SDS011;60752;53.962;9.614;2023-02-01T18:49:48;18.17;;;2.17;;
72674;SDS011;60752;53.962;9.614;2023-02-01T18:54:48;15.98;;;2.20;;
72674;SDS011;60752;53.962;9.614;2023-02-01T18:59:49;17.43;;;2.20;;
72674;SDS011;60752;53.962;9.614;2023-02-01T19:04:50;13.63;;;2.17;;
72674;SDS011;60752;53.962;9.614;2023-02-01T19:09:51;12.77;;;3.13;;
72674;SDS011;60752;53.962;9.614;2023-02-01T19:14:51;7.00;;;1.53;;
72674;SDS011;60752;53.962;9.614;2023-02-01T19:19:53;6.60;;;1.63;;
72674;SDS011;60752;53.962;9.614;2023-02-01T19:24:54;10.30;;;2.17;;
72674;SDS011;60752;53.962;9.614;2023-02-01T19:29:54;11.47;;;1.60;;
72674;SDS011;60752;53.962;9.614;2023-02-01T19:34:56;14.17;;;1.70;;
72674;SDS011;60752;53.962;9.614;2023-02-01T19:39:56;14.87;;;1.63;;
72674;SDS011;60752;53.962;9.614;2023-02-01T19:44:57;16.77;;;2.63;;
72674;SDS011;60752;53.962;9.614;2023-02-01T19:49:58;11.33;;;1.73;;
72674;SDS011;60752;53.962;9.614;2023-02-01T19:54:59;14.32;;;2.15;;
72674;SDS011;60752;53.962;9.614;2023-02-01T19:59:59;20.47;;;2.70;;
72674;SDS011;60752;53.962;9.614;2023-02-01T20:05:01;18.40;;;2.53;;
72674;SDS011;60752;53.962;9.614;2023-02-01T20:10:02;11.10;;;2.38;;
72674;SDS011;60752;53.962;9.614;2023-02-01T20:15:03;25.90;;;3.10;;
72674;SDS011;60752;53.962;9.614;2023-02-01T20:20:05;13.88;;;3.10;;
72674;SDS011;60752;53.962;9.614;2023-02-01T20:25:07;24.80;;;3.10;;
72674;SDS011;60752;53.962;9.614;2023-02-01T20:30:08;34.43;;;2.70;;
72674;SDS011;60752;53.962;9.614;2023-02-01T20:35:11;20.63;;;2.87;;
72674;SDS011;60752;53.962;9.614;2023-02-01T20:40:12;14.23;;;2.47;;
72674;SDS011;60752;53.962;9.614;2023-02-01T20:45:13;24.03;;;3.67;;
72674;SDS011;60752;53.962;9.614;2023-02-01T20:50:15;11.53;;;3.10;;
72674;SDS011;60752;53.962;9.614;2023-02-01T20:55:15;17.30;;;2.72;;
72674;SDS011;60752;53.962;9.614;2023-02-01T21:00:16;23.13;;;4.23;;
72674;SDS011;60752;53.962;9.614;2023-02-01T21:05:18;22.05;;;3.28;;
72674;SDS011;60752;53.962;9.614;2023-02-01T21:10:19;18.63;;;2.80;;
72674;SDS011;60752;53.962;9.614;2023-02-01T21:15:19;21.23;;;2.93;;
72674;SDS011;60752;53.962;9.614;2023-02-01T21:20:21;21.27;;;3.10;;
72674;SDS011;60752;53.962;9.614;2023-02-01T21:25:22;23.83;;;2.60;;
72674;SDS011;60752;53.962;9.614;2023-02-01T21:30:23;18.70;;;2.53;;
72674;SDS011;60752;53.962;9.614;2023-02-01T21:35:24;17.97;;;2.77;;
72674;SDS011;60752;53.962;9.614;2023-02-01T21:40:25;21.30;;;3.70;;
72674;SDS011;60752;53.962;9.614;2023-02-01T21:45:25;29.47;;;3.37;;
72674;SDS011;60752;53.962;9.614;2023-02-01T21:50:27;16.97;;;3.27;;
72674;SDS011;60752;53.962;9.614;2023-02-01T21:55:28;21.45;;;3.00;;
72674;SDS011;60752;53.962;9.614;2023-02-01T22:00:28;27.57;;;3.40;;
72674;SDS011;60752;53.962;9.614;2023-02-01T22:05:30;14.57;;;2.97;;
72674;SDS011;60752;53.962;9.614;2023-02-01T22:10:30;21.93;;;2.60;;
72674;SDS011;60752;53.962;9.614;2023-02-01T22:15:30;13.80;;;2.50;;
72674;SDS011;60752;53.962;9.614;2023-02-01T22:20:32;24.37;;;3.73;;
72674;SDS011;60752;53.962;9.614;2023-02-01T22:25:33;17.60;;;3.50;;
72674;SDS011;60752;53.962;9.614;2023-02-01T22:30:33;15.63;;;1.80;;
72674;SDS011;60752;53.962;9.614;2023-02-01T22:35:35;21.70;;;2.97;;
72674;SDS011;60752;53.962;9.614;2023-02-01T22:40:36;16.73;;;2.10;;
72674;SDS011;60752;53.962;9.614;2023-02-01T22:45:36;16.43;;;2.23;;
72674;SDS011;60752;53.962;9.614;2023-02-01T22:50:38;25.50;;;3.37;;
72674;SDS011;60752;53.962;9.614;2023-02-01T22:55:38;18.15;;;3.70;;
72674;SDS011;60752;53.962;9.614;2023-02-01T23:00:39;20.87;;;2.43;;
72674;SDS011;60752;53.962;9.614;2023-02-01T23:05:41;17.37;;;2.80;;
72674;SDS011;60752;53.962;9.614;2023-02-01T23:10:41;20.30;;;3.05;;
72674;SDS011;60752;53.962;9.614;2023-02-01T23:15:41;15.67;;;1.90;;
72674;SDS011;60752;53.962;9.614;2023-02-01T23:20:43;19.43;;;2.83;;
72674;SDS011;60752;53.962;9.614;2023-02-01T23:25:47;17.02;;;2.03;;
72674;SDS011;60752;53.962;9.614;2023-02-01T23:30:48;22.87;;;3.13;;
72674;SDS011;60752;53.962;9.614;2023-02-01T23:35:54;17.57;;;2.00;;
72674;SDS011;60752;53.962;9.614;2023-02-01T23:40:56;12.97;;;3.13;;
72674;SDS011;60752;53.962;9.614;2023-02-01T23:45:57;13.60;;;1.80;;
72674;SDS011;60752;53.962;9.614;2023-02-01T23:50:59;18.73;;;2.67;;
72674;SDS011;60752;53.962;9.614;2023-02-01T23:55:59;16.02;;;2.00;;
